Time;durP1;ratioP1;P1;durP2;ratioP2;P2;SDS_P1;SDS_P2;PMS_P1;PMS_P2;Temp;Humidity;BMP_temperature;BMP_pressure;BME280_temperature;BME280_humidity;BME280_pressure;Samples;Min_cycle;Max_cycle;Signal;HPM_P1;HPM_P2
2023/08/06 00:00:22;;;;;;;0.50;0.50;;;;;;;14.63;100.00;96159.66;29395;246;63005;-54
2023/08/06 00:00:53;;;;;;;0.40;0.40;;;;;;;14.62;100.00;96162.72;29394;237;64009;-61
2023/08/06 00:01:25;;;;;;;0.50;0.50;;;;;;;14.61;100.00;96161.94;29395;210;63005;-62
2023/08/06 00:01:56;;;;;;;0.40;0.40;;;;;;;14.61;100.00;96163.84;29395;203;63009;-62
2023/08/06 00:02:32;;;;;;;0.40;0.40;;;;;;;14.59;100.00;96160.66;29394;218;64009;-54
2023/08/06 00:03:04;;;;;;;0.43;0.43;;;;;;;14.59;100.00;96161.47;29395;239;63009;-55
2023/08/06 00:03:36;;;;;;;0.43;0.43;;;;;;;14.58;100.00;96148.94;29395;212;63009;-54
2023/08/06 00:04:07;;;;;;;0.40;0.40;;;;;;;14.58;100.00;96159.87;29395;215;63024;-54
2023/08/06 00:04:39;;;;;;;0.40;0.40;;;;;;;14.59;100.00;96161.47;29394;233;64009;-62
2023/08/06 00:05:11;;;;;;;0.50;0.50;;;;;;;14.58;100.00;96159.87;29395;226;63008;-54
2023/08/06 00:05:45;;;;;;;0.40;0.40;;;;;;;14.57;100.00;96158.28;29395;226;63005;-62
2023/08/06 00:06:19;;;;;;;0.40;0.40;;;;;;;14.55;100.00;96154.31;29395;219;63009;-61
2023/08/06 00:06:52;;;;;;;0.40;0.40;;;;;;;14.53;100.00;96154.63;29394;315;64009;-62
2023/08/06 00:07:23;;;;;;;0.50;0.50;;;;;;;14.48;100.00;96148.59;29395;229;63015;-54
2023/08/06 00:07:54;;;;;;;0.40;0.40;;;;;;;14.44;100.00;96151.19;29395;254;63005;-62
2023/08/06 00:08:25;;;;;;;0.40;0.40;;;;;;;14.41;100.00;96149.12;29394;205;64013;-63
2023/08/06 00:08:59;;;;;;;0.40;0.40;;;;;;;14.39;100.00;96154.88;29394;232;64009;-62
2023/08/06 00:09:32;;;;;;;0.40;0.40;;;;;;;14.40;100.00;96152.97;29395;236;63009;-62
2023/08/06 00:10:05;;;;;;;0.40;0.40;;;;;;;14.37;100.00;96154.44;29395;197;63004;-61
2023/08/06 00:10:36;;;;;;;0.40;0.40;;;;;;;14.35;100.00;96155.88;29395;227;63009;-54
2023/08/06 00:11:08;;;;;;;0.40;0.40;;;;;;;14.32;100.00;96156.56;29395;222;63004;-62
2023/08/06 00:11:41;;;;;;;0.40;0.40;;;;;;;14.32;100.00;96151.09;29395;206;63014;-61
2023/08/06 00:12:12;;;;;;;0.40;0.40;;;;;;;14.32;100.00;96156.56;29395;224;63004;-62
2023/08/06 00:12:44;;;;;;;0.40;0.40;;;;;;;14.30;100.00;96148.69;29395;222;63008;-54
2023/08/06 00:13:15;;;;;;;0.40;0.40;;;;;;;14.29;100.00;96151.75;29395;357;63005;-62
2023/08/06 00:13:47;;;;;;;0.50;0.50;;;;;;;14.28;100.00;96147.44;29394;198;64014;-62
2023/08/06 00:14:18;;;;;;;0.40;0.40;;;;;;;14.26;100.00;96142.31;29395;230;63005;-61
2023/08/06 00:14:52;;;;;;;0.98;0.98;;;;;;;14.27;100.00;96143.09;29395;291;63019;-62
2023/08/06 00:15:23;;;;;;;0.40;0.40;;;;;;;14.27;100.00;96143.09;29395;206;63005;-62
2023/08/06 00:15:55;;;;;;;0.50;0.50;;;;;;;14.26;100.00;96146.97;29395;198;63009;-63
2023/08/06 00:16:26;;;;;;;0.50;0.50;;;;;;;14.25;100.00;96139.91;29395;202;63005;-61
2023/08/06 00:16:57;;;;;;;0.40;0.40;;;;;;;14.24;100.00;96144.56;29395;239;63009;-61
2023/08/06 00:17:29;;;;;;;0.50;0.50;;;;;;;14.23;100.00;96144.91;29395;240;63008;-61
2023/08/06 00:18:00;;;;;;;0.50;0.50;;;;;;;14.23;100.00;96144.91;29395;255;63009;-62
2023/08/06 00:18:32;;;;;;;0.50;0.50;;;;;;;14.24;100.00;96141.03;29394;215;64009;-53
2023/08/06 00:19:03;;;;;;;0.40;0.40;;;;;;;14.25;100.00;96150.84;29395;209;63009;-62
2023/08/06 00:19:35;;;;;;;0.40;0.40;;;;;;;14.24;100.00;96150.03;29395;206;63004;-62
2023/08/06 00:20:10;;;;;;;0.45;0.45;;;;;;;14.21;100.00;96149.91;29395;224;63008;-63
2023/08/06 00:20:41;;;;;;;0.50;0.50;;;;;;;14.18;100.00;96151.37;29395;213;63005;-61
2023/08/06 00:21:12;;;;;;;0.50;0.50;;;;;;;14.17;100.00;96149.78;29395;289;63017;-61
2023/08/06 00:21:44;;;;;;;0.40;0.40;;;;;;;14.14;100.00;96155.12;29395;236;63005;-52
2023/08/06 00:22:16;;;;;;;0.40;0.40;;;;;;;14.12;100.00;96149.19;29394;220;64014;-60
2023/08/06 00:22:47;;;;;;;0.40;0.40;;;;;;;14.12;100.00;96143.72;29395;287;63005;-60
2023/08/06 00:23:21;;;;;;;0.50;0.50;;;;;;;14.11;100.00;96150.31;29395;241;63009;-62
2023/08/06 00:23:52;;;;;;;0.50;0.50;;;;;;;14.09;100.00;96154.19;29394;198;63999;-63
2023/08/06 00:24:27;;;;;;;0.50;0.50;;;;;;;14.07;100.00;96145.53;29395;210;63009;-61
2023/08/06 00:24:59;;;;;;;0.50;0.50;;;;;;;14.04;100.00;96146.19;29395;231;63004;-62
2023/08/06 00:25:30;;;;;;;0.50;0.50;;;;;;;14.05;100.00;96149.72;29395;199;63009;-61
2023/08/06 00:26:01;;;;;;;0.40;0.40;;;;;;;14.04;100.00;96148.91;29395;269;63004;-62
2023/08/06 00:26:32;;;;;;;0.50;0.50;;;;;;;14.06;100.00;96154.03;29395;243;63009;-53
2023/08/06 00:27:05;;;;;;;0.40;0.40;;;;;;;14.06;100.00;96149.38;29395;225;63004;-62
2023/08/06 00:27:38;;;;;;;0.45;0.45;;;;;;;14.04;100.00;96151.66;29395;220;63008;-62
2023/08/06 00:28:12;;;;;;;0.50;0.50;;;;;;;14.05;100.00;96153.25;29395;364;63004;-54
2023/08/06 00:28:45;;;;;;;0.47;0.47;;;;;;;14.04;100.00;96157.09;29394;198;64014;-62
2023/08/06 00:29:20;;;;;;;0.50;0.50;;;;;;;14.04;100.00;96150.84;29395;197;63005;-61
2023/08/06 00:29:52;;;;;;;0.50;0.50;;;;;;;14.03;100.00;96152.78;29395;377;63009;-62
2023/08/06 00:30:27;;;;;;;0.50;0.50;;;;;;;14.03;100.00;96149.25;29394;225;64005;-53
2023/08/06 00:31:00;;;;;;;0.50;0.50;;;;;;;14.00;100.00;96150.72;29395;227;63009;-54
2023/08/06 00:31:31;;;;;;;0.40;0.40;;;;;;;14.01;100.00;96152.31;29395;206;63003;-61
2023/08/06 00:32:03;;;;;;;0.43;0.43;;;;;;;14.01;100.00;96152.31;29395;304;63009;-53
2023/08/06 00:32:34;;;;;;;0.40;0.40;;;;;;;14.02;100.00;96148.47;29395;228;63013;-63
2023/08/06 00:33:06;;;;;;;0.50;0.50;;;;;;;14.03;100.00;96149.25;29394;202;64013;-61
2023/08/06 00:33:38;;;;;;;0.50;0.50;;;;;;;14.03;100.00;96149.25;29395;249;63004;-61
2023/08/06 00:34:10;;;;;;;0.40;0.40;;;;;;;14.02;100.00;96145.72;29395;198;63008;-61
2023/08/06 00:34:41;;;;;;;0.50;0.50;;;;;;;13.99;100.00;96149.12;29395;204;63004;-60
2023/08/06 00:35:13;;;;;;;0.40;0.40;;;;;;;13.97;100.00;96143.19;29394;376;64013;-53
2023/08/06 00:35:47;;;;;;;0.50;0.50;;;;;;;13.98;100.00;96142.06;29395;202;63019;-52
2023/08/06 00:36:19;;;;;;;0.40;0.40;;;;;;;13.98;100.00;96138.53;29395;238;63009;-61
2023/08/06 00:36:50;;;;;;;0.40;0.40;;;;;;;13.97;100.00;96145.91;29395;277;63005;-60
2023/08/06 00:37:22;;;;;;;0.50;0.50;;;;;;;13.98;100.00;96144.00;29395;384;63009;-60
2023/08/06 00:37:56;;;;;;;0.40;0.40;;;;;;;13.95;100.00;96142.72;29395;233;63005;-61
2023/08/06 00:38:29;;;;;;;0.50;0.50;;;;;;;13.93;100.00;96134.06;29395;207;63005;-62
2023/08/06 00:39:00;;;;;;;0.50;0.50;;;;;;;13.93;100.00;96142.25;29395;226;63005;-62
2023/08/06 00:39:33;;;;;;;0.50;0.50;;;;;;;13.95;100.00;96142.72;29395;238;63009;-62
2023/08/06 00:40:06;;;;;;;0.40;0.40;;;;;;;13.97;100.00;96140.47;29394;250;64009;-62
2023/08/06 00:40:38;;;;;;;0.40;0.40;;;;;;;13.97;100.00;96140.47;29395;284;63026;-53
2023/08/06 00:41:09;;;;;;;0.40;0.40;;;;;;;13.97;100.00;96142.41;29395;234;63000;-62
2023/08/06 00:41:40;;;;;;;0.50;0.50;;;;;;;13.97;100.00;96135.00;29395;208;63008;-62
2023/08/06 00:42:12;;;;;;;0.40;0.40;;;;;;;13.97;100.00;96142.41;29395;213;63004;-62
2023/08/06 00:42:44;;;;;;;14.70;14.05;;;;;;;13.96;100.00;96144.31;29385;213;65009;-62
2023/08/06 00:43:16;;;;;;;0.40;0.40;;;;;;;13.95;100.00;96142.72;29395;232;63005;-61
2023/08/06 00:43:47;;;;;;;0.70;0.70;;;;;;;13.95;100.00;96140.00;29395;339;63009;-60
2023/08/06 00:44:18;;;;;;;0.40;0.40;;;;;;;13.98;100.00;96142.06;29395;215;63005;-60
2023/08/06 00:44:49;;;;;;;0.40;0.40;;;;;;;13.99;100.00;96138.22;29395;245;63005;-61
2023/08/06 00:45:22;;;;;;;0.50;0.50;;;;;;;14.00;100.00;96139.81;29394;234;64009;-61
2023/08/06 00:45:54;;;;;;;0.50;0.50;;;;;;;13.99;100.00;96134.69;29395;219;63009;-54
2023/08/06 00:46:26;;;;;;;0.43;0.43;;;;;;;14.00;100.00;96133.56;29395;203;63008;-61
2023/08/06 00:46:58;;;;;;;0.50;0.50;;;;;;;14.01;100.00;96135.94;29395;237;63009;-61
2023/08/06 00:47:30;;;;;;;0.50;0.50;;;;;;;14.02;100.00;96134.03;29395;198;63004;-62
2023/08/06 00:48:03;;;;;;;0.40;0.40;;;;;;;14.02;100.00;96142.19;29395;208;63009;-54
2023/08/06 00:48:34;;;;;;;0.40;0.40;;;;;;;14.04;100.00;96134.47;29395;196;63004;-63
2023/08/06 00:49:07;;;;;;;0.45;0.45;;;;;;;14.04;100.00;96138.00;29395;196;63009;-62
2023/08/06 00:49:39;;;;;;;0.47;0.47;;;;;;;14.04;100.00;96134.47;29395;324;63004;-62
2023/08/06 00:50:11;;;;;;;0.43;0.43;;;;;;;14.04;100.00;96135.28;29395;196;63009;-54
2023/08/06 00:50:46;;;;;;;0.50;0.50;;;;;;;14.04;100.00;96139.94;29394;213;64009;-65
2023/08/06 00:51:17;;;;;;;0.50;0.50;;;;;;;14.02;100.00;96132.09;29395;301;63018;-52
2023/08/06 00:51:52;;;;;;;0.50;0.50;;;;;;;14.02;100.00;96132.09;29395;260;63005;-63
2023/08/06 00:52:24;;;;;;;0.40;0.40;;;;;;;14.04;100.00;96134.47;29395;219;63009;-61
2023/08/06 00:52:56;;;;;;;0.40;0.40;;;;;;;14.05;100.00;96134.16;29395;220;63005;-61
2023/08/06 00:53:28;;;;;;;0.50;0.50;;;;;;;14.06;100.00;96138.47;29395;323;63009;-52
2023/08/06 00:53:59;;;;;;;0.40;0.40;;;;;;;14.07;100.00;96128.37;29395;202;63005;-52
2023/08/06 00:54:32;;;;;;;0.40;0.40;;;;;;;14.09;100.00;96126.09;29395;263;63009;-54
2023/08/06 00:55:05;;;;;;;0.43;0.43;;;;;;;14.10;100.00;96122.25;29395;311;63004;-62
2023/08/06 00:55:38;;;;;;;0.50;0.50;;;;;;;14.12;100.00;96121.91;29394;211;64013;-60
2023/08/06 00:56:10;;;;;;;0.40;0.40;;;;;;;14.11;100.00;96131.22;29394;206;64004;-60
2023/08/06 00:56:43;;;;;;;0.40;0.40;;;;;;;14.08;100.00;96119.84;29395;225;63008;-52
2023/08/06 00:57:14;;;;;;;0.40;0.40;;;;;;;14.06;100.00;96127.56;29395;232;63004;-62
2023/08/06 00:57:46;;;;;;;0.40;0.40;;;;;;;14.05;100.00;96120.50;29395;198;63009;-64
2023/08/06 00:58:19;;;;;;;0.40;0.40;;;;;;;14.09;100.00;96116.00;29395;199;63005;-62
2023/08/06 00:58:50;;;;;;;0.50;0.50;;;;;;;14.09;100.00;96121.44;29395;203;63009;-63
2023/08/06 00:59:24;;;;;;;0.50;0.50;;;;;;;14.09;100.00;96124.19;29395;284;63005;-62
2023/08/06 00:59:56;;;;;;;0.45;0.45;;;;;;;14.11;100.00;96120.31;29395;197;63009;-63
2023/08/06 01:00:28;;;;;;;0.50;0.50;;;;;;;14.09;100.00;96118.72;29394;255;64009;-61
2023/08/06 01:01:02;;;;;;;0.47;0.47;;;;;;;14.07;100.00;96118.25;29395;216;63009;-54
2023/08/06 01:01:33;;;;;;;0.40;0.40;;;;;;;14.05;100.00;96120.50;29395;313;63005;-64
2023/08/06 01:02:05;;;;;;;0.40;0.40;;;;;;;14.05;100.00;96119.72;29395;212;63009;-62
2023/08/06 01:02:37;;;;;;;0.50;0.50;;;;;;;14.04;100.00;96118.12;29395;204;63004;-61
2023/08/06 01:03:10;;;;;;;0.40;0.40;;;;;;;14.02;100.00;96113.00;29395;221;63004;-63
2023/08/06 01:03:42;;;;;;;0.40;0.40;;;;;;;13.99;100.00;96110.94;29395;217;63004;-60
2023/08/06 01:04:14;;;;;;;0.40;0.40;;;;;;;13.97;100.00;96124.09;29395;210;63009;-60
2023/08/06 01:04:45;;;;;;;0.50;0.50;;;;;;;13.94;100.00;96119.31;29394;226;64008;-61
2023/08/06 01:05:17;;;;;;;0.50;0.50;;;;;;;13.95;100.00;96117.38;29395;251;63017;-62
2023/08/06 01:05:50;;;;;;;0.40;0.40;;;;;;;13.96;100.00;96117.06;29395;266;63005;-52
2023/08/06 01:06:47;;;;;;;0.40;0.40;;;;;;;13.97;100.00;96118.66;29395;298;63009;-52
2023/08/06 01:08:08;;;;;;;0.50;0.50;;;;;;;13.99;100.00;96119.13;29394;222;64009;-60
2023/08/06 01:09:21;;;;;;;0.50;0.50;;;;;;;13.96;100.00;96117.06;29394;227;64013;-61
2023/08/06 01:10:33;;;;;;;0.43;0.43;;;;;;;13.94;100.00;96122.03;29395;224;63004;-52
2023/08/06 01:11:54;;;;;;;0.50;0.50;;;;;;;13.90;100.00;96118.38;29416;266;64013;-60
2023/08/06 01:12:41;;;;;;;0.50;0.50;;;;;;;13.89;99.45;96121.44;29394;220;64008;-53
2023/08/06 01:13:49;;;;;;;0.50;0.50;;;;;;;13.88;99.51;96120.63;29394;204;64014;-53
2023/08/06 01:14:38;;;;;;;0.40;0.40;;;;;;;13.87;98.97;96119.03;29395;218;63015;-62
2023/08/06 01:15:22;;;;;;;0.50;0.50;;;;;;;13.85;98.45;96118.59;29395;276;63009;-62
2023/08/06 01:15:57;;;;;;;0.50;0.50;;;;;;;13.81;97.55;96114.94;29394;266;64009;-61
2023/08/06 01:16:32;;;;;;;0.40;0.40;;;;;;;13.81;97.74;96114.94;29395;316;63009;-53
2023/08/06 01:17:05;;;;;;;0.40;0.40;;;;;;;13.82;98.11;96122.00;29395;226;63011;-53
2023/08/06 01:17:37;;;;;;;0.50;0.50;;;;;;;13.83;98.18;96117.34;29395;197;63009;-61
2023/08/06 01:18:10;;;;;;;0.40;0.40;;;;;;;13.81;97.77;96114.94;29395;267;63004;-53
2023/08/06 01:18:46;;;;;;;0.43;0.43;;;;;;;13.80;97.68;96120.72;29395;205;63009;-53
2023/08/06 01:19:18;;;;;;;0.50;0.50;;;;;;;13.81;98.08;96108.69;29394;210;64009;-61
2023/08/06 01:19:50;;;;;;;0.50;0.50;;;;;;;13.81;97.91;96120.38;29395;372;63008;-62
2023/08/06 01:20:21;;;;;;;0.50;0.50;;;;;;;13.81;97.88;96109.50;29395;198;63005;-53
2023/08/06 01:20:53;;;;;;;0.45;0.45;;;;;;;13.82;97.76;96121.19;29395;306;63009;-63
2023/08/06 01:21:24;;;;;;;0.50;0.50;;;;;;;13.80;97.81;96116.06;29395;228;63005;-61
2023/08/06 01:21:56;;;;;;;0.40;0.40;;;;;;;13.80;97.93;96116.06;29395;261;63015;-62
2023/08/06 01:22:28;;;;;;;0.50;0.50;;;;;;;13.81;97.78;96116.88;29395;200;63005;-62
2023/08/06 01:22:59;;;;;;;0.50;0.50;;;;;;;13.83;97.65;96112.69;29394;347;64013;-62
2023/08/06 01:23:31;;;;;;;0.50;0.50;;;;;;;13.85;97.22;96110.41;29395;266;63005;-61
2023/08/06 01:24:03;;;;;;;0.47;0.47;;;;;;;13.85;97.24;96115.88;29394;366;64013;-53
2023/08/06 01:24:34;;;;;;;0.50;0.50;;;;;;;13.81;97.27;96112.22;29395;218;63007;-62
2023/08/06 01:25:07;;;;;;;0.50;0.50;;;;;;;13.81;96.96;96112.22;29395;245;63009;-62
2023/08/06 01:25:59;;;;;;;0.40;0.40;;;;;;;13.82;97.60;96118.47;29395;292;63004;-53
2023/08/06 01:26:42;;;;;;;0.50;0.50;;;;;;;13.85;98.31;96110.41;29417;220;63009;-61
2023/08/06 01:27:34;;;;;;;0.50;0.50;;;;;;;13.87;98.01;96113.59;29395;197;63004;-61
2023/08/06 01:28:17;;;;;;;0.50;0.50;;;;;;;13.86;97.41;96111.22;29417;240;63009;-52
2023/08/06 01:29:19;;;;;;;0.50;0.50;;;;;;;13.82;97.48;96107.56;29394;258;64009;-53
2023/08/06 01:30:27;;;;;;;0.50;0.50;;;;;;;13.87;96.65;96107.34;29417;224;63009;-61
2023/08/06 01:31:02;;;;;;;0.50;0.50;;;;;;;13.89;96.72;96105.06;29394;208;64005;-64
2023/08/06 01:31:41;;;;;;;0.50;0.50;;;;;;;13.87;97.04;96113.59;29394;202;64013;-62
2023/08/06 01:32:15;;;;;;;0.50;0.50;;;;;;;13.89;97.13;96097.69;29395;332;63004;-64
2023/08/06 01:32:54;;;;;;;0.50;0.50;;;;;;;13.92;96.78;96110.66;29395;292;63009;-61
2023/08/06 01:33:27;;;;;;;0.50;0.50;;;;;;;13.93;97.53;96104.06;29395;217;63004;-61
2023/08/06 01:34:01;;;;;;;0.50;0.50;;;;;;;13.94;97.45;96108.41;29394;246;64013;-62
2023/08/06 01:34:35;;;;;;;0.50;0.50;;;;;;;13.96;96.86;96100.69;29395;340;63014;-61
2023/08/06 01:35:08;;;;;;;0.50;0.50;;;;;;;13.97;96.16;96102.28;29395;202;63008;-54
2023/08/06 01:35:39;;;;;;;0.40;0.40;;;;;;;13.97;95.94;96101.47;29395;199;63005;-53
2023/08/06 01:36:12;;;;;;;0.40;0.40;;;;;;;13.98;96.17;96105.81;29395;229;63009;-62
2023/08/06 01:36:44;;;;;;;0.50;0.50;;;;;;;13.97;96.29;96106.94;29395;204;63005;-62
2023/08/06 01:37:17;;;;;;;0.50;0.50;;;;;;;13.96;96.45;96108.06;29395;203;63009;-53
2023/08/06 01:37:49;;;;;;;0.45;0.45;;;;;;;13.92;96.25;96101.69;29395;286;63005;-63
2023/08/06 01:38:21;;;;;;;0.40;0.40;;;;;;;13.91;95.41;96100.88;29395;257;63009;-64
2023/08/06 01:38:54;;;;;;;0.50;0.50;;;;;;;13.93;95.75;96106.81;29395;350;63004;-61
2023/08/06 01:39:29;;;;;;;0.43;0.43;;;;;;;13.94;95.45;96097.50;29394;200;64013;-53
2023/08/06 01:40:00;;;;;;;0.50;0.50;;;;;;;13.95;95.35;96103.75;29395;301;63004;-61
2023/08/06 01:40:34;;;;;;;0.50;0.50;;;;;;;13.94;95.45;96102.94;29395;253;63009;-60
2023/08/06 01:41:05;;;;;;;0.50;0.50;;;;;;;13.91;95.60;96108.25;29395;227;63004;-61
2023/08/06 01:41:36;;;;;;;0.50;0.50;;;;;;;13.91;95.66;96102.81;29395;213;63019;-61
2023/08/06 01:42:09;;;;;;;0.40;0.40;;;;;;;13.93;96.15;96101.34;29395;239;63004;-61
2023/08/06 01:42:40;;;;;;;0.50;0.50;;;;;;;13.92;95.73;96105.22;29395;343;63008;-63
2023/08/06 01:43:11;;;;;;;0.45;0.45;;;;;;;13.93;95.87;96106.00;29395;233;63005;-62
2023/08/06 01:43:46;;;;;;;0.40;0.40;;;;;;;13.92;96.05;96099.75;29395;221;63009;-60
2023/08/06 01:44:19;;;;;;;0.40;0.40;;;;;;;13.89;95.85;96105.87;29395;198;63011;-62
2023/08/06 01:44:50;;;;;;;0.43;0.43;;;;;;;13.89;95.87;96105.06;29394;216;64013;-61
2023/08/06 01:45:23;;;;;;;0.50;0.50;;;;;;;13.87;95.47;96104.59;29395;216;63005;-62
2023/08/06 01:45:58;;;;;;;0.40;0.40;;;;;;;13.86;95.31;96108.50;29395;234;63009;-61
2023/08/06 01:46:29;;;;;;;0.50;0.50;;;;;;;13.85;96.02;96099.50;29394;308;64009;-62
2023/08/06 01:47:01;;;;;;;0.40;0.40;;;;;;;13.85;95.84;96093.25;29395;212;63009;-61
2023/08/06 01:47:32;;;;;;;0.50;0.50;;;;;;;13.89;95.63;96094.16;29394;208;64009;-53
2023/08/06 01:48:04;;;;;;;0.50;0.50;;;;;;;13.87;95.54;96091.78;29395;218;63009;-63
2023/08/06 01:48:35;;;;;;;0.40;0.40;;;;;;;13.88;95.60;96093.38;29395;202;63004;-62
2023/08/06 01:49:07;;;;;;;0.40;0.40;;;;;;;13.88;95.65;96098.03;29395;231;63008;-64
2023/08/06 01:49:41;;;;;;;0.40;0.40;;;;;;;13.90;95.68;96093.84;29395;283;63005;-62
2023/08/06 01:50:12;;;;;;;0.50;0.50;;;;;;;13.92;96.02;96094.31;29395;335;63009;-63
2023/08/06 01:50:48;;;;;;;0.50;0.50;;;;;;;13.93;96.05;96090.44;29395;210;63005;-64
2023/08/06 01:51:20;;;;;;;0.50;0.50;;;;;;;13.95;96.15;96090.91;29394;235;64013;-54
2023/08/06 01:51:51;;;;;;;0.40;0.40;;;;;;;13.95;95.55;96096.38;29395;199;63005;-66
2023/08/06 01:52:22;;;;;;;0.50;0.50;;;;;;;13.97;94.83;96091.37;29395;251;63009;-65
2023/08/06 01:52:54;;;;;;;0.40;0.40;;;;;;;14.01;95.20;96097.75;29395;205;63005;-64
2023/08/06 01:53:26;;;;;;;0.50;0.50;;;;;;;14.03;95.05;96092.78;29395;268;63021;-64
2023/08/06 01:53:57;;;;;;;0.40;0.40;;;;;;;14.02;94.87;96093.91;29394;237;64009;-65
2023/08/06 01:54:29;;;;;;;0.40;0.40;;;;;;;14.04;94.91;96091.66;29395;209;63009;-63
2023/08/06 01:55:02;;;;;;;0.65;0.65;;;;;;;14.03;94.87;96090.03;29395;221;63004;-63
2023/08/06 01:55:36;;;;;;;0.40;0.40;;;;;;;14.03;94.83;96090.03;29395;214;63009;-64
2023/08/06 01:56:07;;;;;;;0.40;0.40;;;;;;;14.02;94.70;96099.34;29394;359;64009;-54
2023/08/06 01:56:39;;;;;;;0.50;0.50;;;;;;;14.02;94.61;96093.91;29395;235;63008;-64
2023/08/06 01:57:13;;;;;;;0.40;0.40;;;;;;;14.03;94.96;96095.50;29395;412;63005;-62
2023/08/06 01:57:44;;;;;;;0.50;0.50;;;;;;;14.01;94.56;96092.31;29395;225;63009;-54
2023/08/06 01:58:16;;;;;;;0.40;0.40;;;;;;;13.98;95.08;96086.72;29394;225;64009;-54
2023/08/06 01:58:47;;;;;;;0.50;0.50;;;;;;;13.96;94.86;96091.72;29395;236;63009;-62
2023/08/06 01:59:18;;;;;;;0.50;0.50;;;;;;;13.93;95.33;96084.19;29395;221;63005;-61
2023/08/06 01:59:50;;;;;;;0.50;0.50;;;;;;;13.91;95.84;96087.25;29394;213;64013;-63
2023/08/06 02:00:21;;;;;;;0.40;0.40;;;;;;;13.90;95.74;96085.66;29395;263;63005;-61
2023/08/06 02:00:52;;;;;;;0.50;0.50;;;;;;;13.90;96.10;96085.66;29395;203;63009;-61
2023/08/06 02:01:23;;;;;;;0.50;0.50;;;;;;;13.92;95.15;96083.37;29394;207;64009;-62
2023/08/06 02:01:55;;;;;;;0.50;0.50;;;;;;;13.93;94.80;96086.91;29395;218;63009;-63
2023/08/06 02:02:26;;;;;;;0.40;0.40;;;;;;;13.89;95.35;96083.25;29395;203;63009;-63
2023/08/06 02:02:58;;;;;;;0.40;0.40;;;;;;;13.89;95.60;96083.25;29395;202;63009;-64
2023/08/06 02:03:29;;;;;;;0.50;0.50;;;;;;;13.85;95.70;96077.69;29395;203;63004;-62
2023/08/06 02:04:01;;;;;;;0.50;0.50;;;;;;;13.83;95.54;96077.22;29395;208;63008;-53
2023/08/06 02:04:33;;;;;;;0.50;0.50;;;;;;;13.82;96.01;96072.91;29395;203;63004;-62
2023/08/06 02:05:05;;;;;;;0.50;0.50;;;;;;;13.79;95.71;96078.22;29394;214;64014;-62
2023/08/06 02:05:37;;;;;;;0.40;0.40;;;;;;;13.75;96.09;96073.44;29395;364;63005;-54
2023/08/06 02:06:08;;;;;;;0.50;0.50;;;;;;;13.74;96.59;96065.59;29395;281;63009;-53
2023/08/06 02:06:41;;;;;;;0.43;0.43;;;;;;;13.73;96.24;96069.44;29395;262;63008;-53
2023/08/06 02:07:12;;;;;;;0.40;0.40;;;;;;;13.70;96.28;96073.63;29395;295;63009;-64
2023/08/06 02:07:46;;;;;;;0.40;0.40;;;;;;;13.67;96.34;96076.22;29395;252;63005;-63
2023/08/06 02:08:17;;;;;;;0.40;0.40;;;;;;;13.66;96.16;96069.19;29395;208;63009;-63
2023/08/06 02:08:48;;;;;;;0.50;0.50;;;;;;;13.68;96.85;96065.00;29395;207;63005;-64
2023/08/06 02:09:21;;;;;;;0.50;0.50;;;;;;;13.69;96.52;96061.13;29395;196;63018;-54
2023/08/06 02:09:52;;;;;;;0.40;0.40;;;;;;;13.69;96.28;96065.78;29395;294;63004;-62
2023/08/06 02:10:24;;;;;;;0.40;0.40;;;;;;;13.67;96.81;96066.13;29394;230;64013;-63
2023/08/06 02:10:55;;;;;;;0.40;0.40;;;;;;;13.66;96.97;96058.28;29395;222;63004;-64
2023/08/06 02:11:26;;;;;;;0.40;0.40;;;;;;;13.63;97.08;96062.47;29395;206;63008;-54
2023/08/06 02:11:57;;;;;;;0.40;0.40;;;;;;;13.63;97.36;96067.09;29395;218;63004;-64
2023/08/06 02:12:35;;;;;;;0.50;0.50;;;;;;;13.62;97.48;96068.25;29395;216;63020;-55
2023/08/06 02:13:06;;;;;;;0.50;0.50;;;;;;;13.62;97.50;96068.25;29395;212;63005;-62
2023/08/06 02:13:37;;;;;;;0.40;0.40;;;;;;;13.63;97.86;96064.38;29395;260;63009;-65
2023/08/06 02:14:09;;;;;;;0.50;0.50;;;;;;;13.62;97.39;96063.59;29395;379;63005;-62
2023/08/06 02:14:40;;;;;;;0.50;0.50;;;;;;;13.60;97.06;96065.03;29395;221;63009;-65
2023/08/06 02:15:11;;;;;;;0.43;0.43;;;;;;;13.57;97.46;96054.81;29395;256;63010;-54
2023/08/06 02:15:45;;;;;;;0.50;0.50;;;;;;;13.54;97.57;96067.16;29394;202;64013;-63
2023/08/06 02:16:16;;;;;;;0.40;0.40;;;;;;;13.52;97.89;96065.91;29394;234;64009;-63
2023/08/06 02:16:51;;;;;;;0.40;0.40;;;;;;;13.50;98.13;96060.81;29395;313;63009;-64
2023/08/06 02:17:25;;;;;;;0.43;0.43;;;;;;;13.52;98.52;96057.72;29395;199;63000;-62
2023/08/06 02:17:57;;;;;;;0.50;0.50;;;;;;;13.51;98.63;96050.69;29395;275;63018;-62
2023/08/06 02:18:28;;;;;;;0.47;0.47;;;;;;;13.50;99.01;96055.34;29395;328;63004;-62
2023/08/06 02:18:59;;;;;;;0.50;0.50;;;;;;;13.51;98.92;96050.69;29395;208;63008;-62
2023/08/06 02:19:31;;;;;;;0.50;0.50;;;;;;;13.53;98.59;96048.41;29395;213;63004;-65
2023/08/06 02:20:03;;;;;;;0.50;0.50;;;;;;;13.57;98.39;96043.91;29395;206;63009;-62
2023/08/06 02:20:34;;;;;;;0.40;0.40;;;;;;;13.55;98.31;96046.16;29395;228;63004;-62
2023/08/06 02:21:06;;;;;;;0.40;0.40;;;;;;;13.54;98.45;96053.53;29395;335;63009;-62
2023/08/06 02:21:37;;;;;;;0.50;0.50;;;;;;;13.56;98.43;96050.47;29394;245;64009;-66
2023/08/06 02:22:08;;;;;;;0.60;0.60;;;;;;;13.55;98.29;96044.22;29395;204;63019;-62
2023/08/06 02:22:43;;;;;;;0.40;0.40;;;;;;;13.52;98.36;96044.87;29395;204;63010;-63
2023/08/06 02:23:15;;;;;;;0.50;0.50;;;;;;;13.51;98.88;96043.31;29395;364;63009;-65
2023/08/06 02:23:48;;;;;;;0.50;0.50;;;;;;;13.52;98.50;96046.81;29395;242;63005;-63
2023/08/06 02:24:19;;;;;;;0.40;0.40;;;;;;;13.50;98.21;96033.56;29395;230;63009;-63
2023/08/06 02:24:50;;;;;;;0.50;0.50;;;;;;;13.50;98.50;96046.38;29395;218;63004;-62
2023/08/06 02:25:22;;;;;;;0.50;0.50;;;;;;;13.49;98.24;96042.06;29395;301;63017;-53
2023/08/06 02:26:01;;;;;;;0.50;0.50;;;;;;;13.47;98.28;96039.66;29395;205;63008;-54
2023/08/06 02:26:35;;;;;;;0.40;0.40;;;;;;;13.47;98.18;96044.31;29394;294;64013;-54
2023/08/06 02:27:07;;;;;;;0.50;0.50;;;;;;;13.45;98.13;96041.12;29395;321;63004;-66
2023/08/06 02:27:38;;;;;;;0.50;0.50;;;;;;;13.43;97.88;96037.94;29395;347;63009;-64
2023/08/06 02:28:09;;;;;;;0.50;0.50;;;;;;;13.44;98.17;96042.25;29395;271;63005;-62
2023/08/06 02:28:41;;;;;;;0.50;0.50;;;;;;;13.40;97.94;96042.91;29395;383;63009;-54
2023/08/06 02:29:16;;;;;;;0.40;0.40;;;;;;;13.39;98.43;96037.78;29395;209;63010;-67
2023/08/06 02:29:47;;;;;;;0.50;0.50;;;;;;;13.36;98.14;96036.53;29395;277;63018;-63
2023/08/06 02:30:18;;;;;;;0.50;0.50;;;;;;;13.31;98.26;96036.72;29395;197;63005;-66
2023/08/06 02:30:51;;;;;;;0.50;0.50;;;;;;;13.34;98.59;96040.72;29395;227;63009;-54
2023/08/06 02:31:22;;;;;;;0.50;0.50;;;;;;;13.33;98.28;96034.47;29394;203;64009;-54
2023/08/06 02:31:53;;;;;;;0.50;0.50;;;;;;;13.31;98.72;96042.16;29395;298;63009;-55
2023/08/06 02:32:25;;;;;;;0.47;0.47;;;;;;;13.29;98.92;96044.41;29395;203;63011;-65
2023/08/06 02:32:56;;;;;;;0.40;0.40;;;;;;;13.31;98.99;96031.28;29395;222;63009;-66
2023/08/06 02:33:28;;;;;;;0.40;0.40;;;;;;;13.29;99.21;96030.00;29395;204;63004;-63
2023/08/06 02:34:00;;;;;;;0.50;0.50;;;;;;;13.27;98.84;96026.81;29395;210;63009;-54
2023/08/06 02:34:32;;;;;;;0.50;0.50;;;;;;;13.23;98.73;96023.94;29394;199;64008;-63
2023/08/06 02:35:05;;;;;;;0.50;0.50;;;;;;;13.24;99.05;96025.53;29395;220;63009;-64
2023/08/06 02:35:36;;;;;;;0.50;0.50;;;;;;;13.23;99.13;96028.59;29395;220;63005;-64
2023/08/06 02:36:07;;;;;;;0.50;0.50;;;;;;;13.26;99.13;96026.00;29395;283;63009;-63
2023/08/06 02:36:38;;;;;;;0.40;0.40;;;;;;;13.26;99.31;96028.72;29395;278;63005;-62
2023/08/06 02:37:09;;;;;;;0.50;0.50;;;;;;;13.25;99.24;96024.41;29395;208;63005;-62
2023/08/06 02:37:41;;;;;;;0.40;0.40;;;;;;;13.24;99.44;96024.75;29395;214;63005;-66
2023/08/06 02:38:12;;;;;;;0.40;0.40;;;;;;;13.24;99.07;96027.47;29395;205;63023;-65
2023/08/06 02:38:44;;;;;;;0.50;0.50;;;;;;;13.21;98.94;96026.19;29395;232;63005;-62
2023/08/06 02:39:15;;;;;;;0.50;0.50;;;;;;;13.21;98.59;96026.19;29395;271;63009;-64
2023/08/06 02:39:46;;;;;;;0.50;0.50;;;;;;;13.20;98.65;96019.16;29394;261;64009;-65